createdAt,value
2022-09-04T00:06:05.658Z,1.70
2022-09-04T00:13:46.929Z,1.38
2022-09-04T00:21:27.697Z,1.45
2022-09-04T00:29:10.247Z,1.55
2022-09-04T00:36:50.339Z,1.40
2022-09-04T00:44:41.363Z,1.65
2022-09-04T00:52:36.398Z,1.83
2022-09-04T01:00:15.963Z,1.80
2022-09-04T01:07:59.958Z,1.52
2022-09-04T01:15:42.254Z,1.75
2022-09-04T01:24:15.398Z,1.63
2022-09-04T01:31:58.418Z,1.77
2022-09-04T01:39:35.328Z,1.73
2022-09-04T01:47:17.749Z,1.25
2022-09-04T01:54:58.264Z,1.35
2022-09-04T02:02:41.278Z,2.10
2022-09-04T02:10:31.200Z,1.30
2022-09-04T02:18:14.983Z,1.27
2022-09-04T02:25:54.494Z,1.40
2022-09-04T02:33:38.529Z,1.30
2022-09-04T02:41:20.220Z,1.27
2022-09-04T02:49:09.320Z,1.30
2022-09-04T02:56:53.376Z,1.33
2022-09-04T03:04:34.574Z,1.35
2022-09-04T03:12:26.501Z,1.45
2022-09-04T03:20:09.996Z,1.00
2022-09-04T03:27:44.066Z,1.55
2022-09-04T03:35:25.779Z,1.05
2022-09-04T03:43:21.726Z,1.10
2022-09-04T03:58:39.667Z,1.20
2022-09-04T04:06:24.736Z,1.52
2022-09-04T04:14:14.859Z,1.10
2022-09-04T04:22:05.148Z,1.17
2022-09-04T04:29:52.267Z,0.90
2022-09-04T04:37:39.162Z,1.20
2022-09-04T04:45:41.223Z,1.10
2022-09-04T04:53:23.720Z,1.00
2022-09-04T05:01:09.513Z,0.95
2022-09-04T05:08:50.700Z,0.90
2022-09-04T05:16:34.255Z,1.02
2022-09-04T05:24:16.033Z,1.15
2022-09-04T05:31:57.019Z,0.90
2022-09-04T05:39:38.413Z,1.02
2022-09-04T05:47:29.825Z,1.05
2022-09-04T05:55:32.145Z,0.90
2022-09-04T06:03:22.057Z,1.65
2022-09-04T06:11:07.597Z,1.20
2022-09-04T06:26:45.945Z,1.15
2022-09-04T06:34:34.965Z,1.40
2022-09-04T06:42:27.468Z,1.50
2022-09-04T06:50:16.134Z,1.48
2022-09-04T06:58:12.039Z,1.73
2022-09-04T07:13:51.983Z,2.08
2022-09-04T07:21:33.565Z,2.58
2022-09-04T07:29:26.129Z,1.83
2022-09-04T07:37:07.015Z,2.42
2022-09-04T07:44:50.044Z,2.28
2022-09-04T07:52:46.301Z,2.53
2022-09-04T08:00:22.780Z,2.63
2022-09-04T08:08:36.650Z,2.40
2022-09-04T08:16:21.202Z,2.25
2022-09-04T08:24:31.087Z,2.73
2022-09-04T08:32:21.608Z,2.47
2022-09-04T08:40:19.923Z,2.40
2022-09-04T08:48:35.706Z,3.53
2022-09-04T08:56:22.220Z,2.87
2022-09-04T09:04:19.639Z,2.58
2022-09-04T09:12:18.147Z,2.92
2022-09-04T09:20:00.980Z,2.90
2022-09-04T09:28:02.279Z,2.60
2022-09-04T09:36:14.808Z,2.67
2022-09-04T09:44:37.307Z,2.13
2022-09-04T09:52:48.073Z,2.20
2022-09-04T10:00:25.278Z,2.67
2022-09-04T10:08:35.661Z,2.42
2022-09-04T10:16:51.772Z,2.30
2022-09-04T10:24:57.541Z,2.83
2022-09-04T10:32:56.939Z,1.95
2022-09-04T10:40:50.635Z,2.22
2022-09-04T10:48:55.266Z,4.60
2022-09-04T10:56:37.794Z,2.15
2022-09-04T11:04:48.316Z,2.20
2022-09-04T11:12:48.890Z,2.05
2022-09-04T11:21:07.941Z,2.35
2022-09-04T11:29:12.820Z,1.90
2022-09-04T11:37:23.664Z,1.90
2022-09-04T11:45:26.965Z,1.80
2022-09-04T11:53:33.487Z,2.05
2022-09-04T12:01:29.832Z,2.08
2022-09-04T12:09:31.530Z,1.98
2022-09-04T12:17:56.390Z,1.83
2022-09-04T12:25:48.374Z,2.45
2022-09-04T12:33:46.337Z,3.08
2022-09-04T12:41:21.526Z,2.22
2022-09-04T12:49:09.178Z,2.10
2022-09-04T12:56:49.573Z,2.67
2022-09-04T13:04:33.832Z,2.00
2022-09-04T13:12:18.740Z,2.17
2022-09-04T13:20:04.994Z,2.42
2022-09-04T13:27:58.350Z,2.45
2022-09-04T13:43:54.968Z,2.53
2022-09-04T13:51:33.433Z,1.85
2022-09-04T13:59:34.342Z,7.18
2022-09-04T14:07:14.762Z,5.00
2022-09-04T14:15:45.390Z,2.05
2022-09-04T14:23:29.674Z,2.20
2022-09-04T14:31:13.374Z,2.20
2022-09-04T14:39:16.248Z,4.25
2022-09-04T14:47:02.146Z,2.38
2022-09-04T14:54:43.687Z,1.83
2022-09-04T15:02:27.810Z,2.63
2022-09-04T15:10:15.656Z,2.10
2022-09-04T15:17:54.898Z,2.20
2022-09-04T15:25:59.094Z,1.80
2022-09-04T15:33:36.429Z,2.55
2022-09-04T15:41:24.143Z,2.13
2022-09-04T15:49:16.959Z,2.45
2022-09-04T15:57:02.954Z,2.45
2022-09-04T16:04:45.544Z,2.45
2022-09-04T16:12:25.006Z,2.08
2022-09-04T16:20:04.490Z,1.88
2022-09-04T16:27:48.908Z,2.08
2022-09-04T16:35:24.089Z,2.20
2022-09-04T16:43:09.958Z,2.10
2022-09-04T16:50:51.851Z,2.30
2022-09-04T16:58:40.324Z,2.13
2022-09-04T17:06:25.024Z,2.08
2022-09-04T17:14:08.869Z,2.00
2022-09-04T17:29:03.859Z,1.73
2022-09-04T17:30:25.435Z,2.58
2022-09-04T17:40:41.015Z,2.15
2022-09-04T17:46:31.035Z,2.00
2022-09-04T17:54:12.180Z,2.20
2022-09-04T18:02:02.322Z,2.13
2022-09-04T18:09:42.609Z,2.60
2022-09-04T18:17:23.499Z,2.20
2022-09-04T18:25:15.825Z,2.72
2022-09-04T18:37:22.281Z,2.10
2022-09-04T18:44:08.706Z,5.82
2022-09-04T18:50:53.073Z,3.28
2022-09-04T18:57:00.511Z,3.72
2022-09-04T19:12:35.726Z,5.40
2022-09-04T19:20:23.881Z,4.15
2022-09-04T19:28:04.099Z,4.15
2022-09-04T19:35:47.412Z,3.03
2022-09-04T19:46:07.884Z,3.33
2022-09-04T19:53:31.103Z,3.15
2022-09-04T19:59:31.992Z,3.58
2022-09-04T20:07:12.588Z,3.00
2022-09-04T20:14:55.241Z,3.00
2022-09-04T20:22:39.834Z,4.22
2022-09-04T20:30:22.251Z,3.00
2022-09-04T20:38:23.283Z,3.95
2022-09-04T20:49:41.705Z,4.13
2022-09-04T20:54:28.199Z,3.35
2022-09-04T21:03:22.527Z,3.33
2022-09-04T21:10:22.045Z,3.17
2022-09-04T21:18:18.303Z,3.40
2022-09-04T21:26:08.668Z,3.70
2022-09-04T21:33:54.819Z,3.28
2022-09-04T21:42:01.635Z,3.70
2022-09-04T21:50:17.100Z,3.42
2022-09-04T22:02:35.288Z,3.20
2022-09-04T22:07:19.543Z,3.75
2022-09-04T22:14:34.090Z,3.85
2022-09-04T22:22:21.871Z,3.33
2022-09-04T22:30:07.370Z,3.75
2022-09-04T22:46:30.980Z,3.58
2022-09-04T22:54:22.964Z,4.00
2022-09-04T23:02:22.111Z,4.43
2022-09-04T23:13:52.293Z,4.07
2022-09-04T23:25:31.053Z,4.20
2022-09-04T23:27:28.660Z,4.10
2022-09-04T23:35:30.137Z,4.68
2022-09-04T23:43:24.315Z,4.05
2022-09-04T23:51:04.645Z,4.05
2022-09-04T23:59:26.209Z,4.72
